Aérodrome :
LOGIN :

S'inscrire | Disclaimer

   EN    FR    IT 

 










Légende :    VFR   VFR Marginal   IFR   IFR Intensif   IFR Très Intensif
Visi : 
Plafond : 
>= 8 km
>= 3000ft
5 à 8 km
1000 à 3000 ft
1500m à 5 km
500 à 1000 ft
800 à 1500m
200 à 500 ft
< 800m
< 200 ft
Symboles :   Orages  Brouillard  Fortes neiges  Fortes précipitations  Vent > 20 kt
SIGMETs :   Divers  Orages  Givrage  Turbulence  Onde Orograph.  Cendres Volcan.






- Altitude de l'aérodrome : 291 ft
- Code IATA : ORY


LFPO - Paris-Orly

DERNIER METAR :
  • 280630Z VRB03KT CAVOK 14/09 Q1024 NOSIG

METARs EXPIRÉS :
  • 280600Z 36003KT 280V040 CAVOK 14/10 Q1024 NOSIG
  • 280530Z 33004KT 310V020 CAVOK 12/10 Q1024 NOSIG
  • 280500Z VRB03KT CAVOK 10/09 Q1024 NOSIG
  • 280430Z 30005KT CAVOK 09/08 Q1023 NOSIG
  • 280400Z 25003KT CAVOK 08/07 Q1023 NOSIG
  • 280330Z 26003KT CAVOK 08/07 Q1023 NOSIG

TAF TAF LFPO
Valide du 28 à 06h jusqu'au 29 à 12h UTC


280500Z 2806/2912 01006KT CAVOK
TEMPO 2816/2821 02015G25KT
BECMG 2906/2908 BKN035
BECMG 2909/2911 CAVOK
ATIS : +33 1 49 75 65 80



MET'MAP, la Météo Aéronautique d'un coup d'oeil ! - Copyright ORBIFLY Décembre 2007 - Disclaimer

ORBIFLY MET'MAP TEAM :

Programmation & Développement : Alexandra Zaïnal
Sur une idée originale de : Baudouin d'Aumeries
Soutien technique & logistique : Manuel Goepfert
Assistance : Marc-Olivier Méhu

Contact : metmap@orbifly.com




SOURCES & CREDITS :

   NOAA